Weather

Clear
Tuesday 05/30 20%
Clear
Generally sunny despite a few afternoon clouds. A stray shower or thunderstorm is possible. High 84F. Winds S at 5 to 10 mph.
Mostly Cloudy
Wednesday 05/31 20%
Mostly Cloudy
A mix of clouds and sun in the morning followed by cloudy skies during the afternoon. A stray shower or thunderstorm is possible. High 76F. Winds SSE at 10 to 15 mph.
Clear
Thursday 06/01 20%
Clear
Except for a few afternoon clouds, mainly sunny. A stray shower or thunderstorm is possible. High 82F. Winds SW at 10 to 15 mph.
Partly Cloudy
Friday 06/02 0%
Partly Cloudy
Partly cloudy. High near 85F. Winds WNW at 10 to 15 mph.
Clear
Saturday 06/03 0%
Clear
Sunny skies. High 88F. Winds NNW at 5 to 10 mph.

 

 

For a detailed forecast click the banner below.

ballooncastlogo

 

 

Available data for KABQ from the past 2 hours
ALBUQUERQUE, NM
Metar
KABQ 300652Z 34007KT 10SM FEW220 15/07 A3021 RMK AO2 SLP158 T01500067 402720144

06:52 UTC

Wind: 340° 7kt

Visibility: 10 SM

Sky: FEW 22000 ft

Temp: 15 deg C / 59 deg F

Dewpoint: 7 deg C / 44.6 deg F

Pressure: 30.21 inHg

TAF
KABQ 300539Z 3006/3106 08008KT P6SM SCT200 FM301500 VRB04KT P6SM SKC FM302300 14012KT P6SM VCSH SCT090 FM310200 22014KT P6SM VCSH BKN070